sensor_id;sensor_type;location;lat;lon;timestamp;temperature;humidity
55634;DHT22;41504;53.162;6.788;2023-10-09T00:02:11;14.00;95.10
55634;DHT22;41504;53.162;6.788;2023-10-09T00:04:41;14.00;95.20
55634;DHT22;41504;53.162;6.788;2023-10-09T00:07:08;14.00;95.30
55634;DHT22;41504;53.162;6.788;2023-10-09T00:09:35;14.00;95.30
55634;DHT22;41504;53.162;6.788;2023-10-09T00:12:17;13.90;95.40
55634;DHT22;41504;53.162;6.788;2023-10-09T00:14:49;13.90;95.50
55634;DHT22;41504;53.162;6.788;2023-10-09T00:17:17;14.00;95.50
55634;DHT22;41504;53.162;6.788;2023-10-09T00:19:44;13.90;95.50
55634;DHT22;41504;53.162;6.788;2023-10-09T00:22:14;14.00;95.50
55634;DHT22;41504;53.162;6.788;2023-10-09T00:24:45;14.00;95.50
55634;DHT22;41504;53.162;6.788;2023-10-09T00:27:15;14.00;95.40
55634;DHT22;41504;53.162;6.788;2023-10-09T00:29:41;14.00;95.50
55634;DHT22;41504;53.162;6.788;2023-10-09T00:32:15;14.00;95.50
55634;DHT22;41504;53.162;6.788;2023-10-09T00:34:48;14.00;95.50
55634;DHT22;41504;53.162;6.788;2023-10-09T00:37:16;14.00;95.50
55634;DHT22;41504;53.162;6.788;2023-10-09T00:39:45;14.00;95.50
55634;DHT22;41504;53.162;6.788;2023-10-09T00:42:14;14.00;95.50
55634;DHT22;41504;53.162;6.788;2023-10-09T00:44:57;14.00;95.50
55634;DHT22;41504;53.162;6.788;2023-10-09T00:47:28;14.00;95.60
55634;DHT22;41504;53.162;6.788;2023-10-09T00:50:09;14.00;95.60
55634;DHT22;41504;53.162;6.788;2023-10-09T00:52:44;14.00;95.60
55634;DHT22;41504;53.162;6.788;2023-10-09T00:55:18;14.00;95.70
55634;DHT22;41504;53.162;6.788;2023-10-09T00:58:01;14.00;95.70
55634;DHT22;41504;53.162;6.788;2023-10-09T01:00:31;14.00;95.80
55634;DHT22;41504;53.162;6.788;2023-10-09T01:03:00;14.00;95.80
55634;DHT22;41504;53.162;6.788;2023-10-09T01:05:38;14.00;95.80
55634;DHT22;41504;53.162;6.788;2023-10-09T01:08:22;14.00;95.80
55634;DHT22;41504;53.162;6.788;2023-10-09T01:11:12;14.00;95.50
55634;DHT22;41504;53.162;6.788;2023-10-09T01:13:45;14.00;95.80
55634;DHT22;41504;53.162;6.788;2023-10-09T01:16:15;14.00;95.80
55634;DHT22;41504;53.162;6.788;2023-10-09T01:18:57;14.00;95.90
55634;DHT22;41504;53.162;6.788;2023-10-09T01:21:23;14.00;96.20
55634;DHT22;41504;53.162;6.788;2023-10-09T01:23:55;14.00;96.00
55634;DHT22;41504;53.162;6.788;2023-10-09T01:26:33;14.00;96.10
55634;DHT22;41504;53.162;6.788;2023-10-09T01:29:08;13.90;96.10
55634;DHT22;41504;53.162;6.788;2023-10-09T01:31:47;14.00;96.20
55634;DHT22;41504;53.162;6.788;2023-10-09T01:34:33;14.00;96.30
55634;DHT22;41504;53.162;6.788;2023-10-09T01:37:16;14.00;96.30
55634;DHT22;41504;53.162;6.788;2023-10-09T01:39:49;14.00;96.30
55634;DHT22;41504;53.162;6.788;2023-10-09T01:42:17;14.00;96.30
55634;DHT22;41504;53.162;6.788;2023-10-09T01:45:09;14.00;96.40
55634;DHT22;41504;53.162;6.788;2023-10-09T01:47:55;14.10;96.40
55634;DHT22;41504;53.162;6.788;2023-10-09T01:50:22;14.10;96.40
55634;DHT22;41504;53.162;6.788;2023-10-09T01:52:50;14.00;96.50
55634;DHT22;41504;53.162;6.788;2023-10-09T01:55:19;14.10;96.50
55634;DHT22;41504;53.162;6.788;2023-10-09T01:57:58;14.10;96.60
55634;DHT22;41504;53.162;6.788;2023-10-09T02:00:27;14.10;96.60
55634;DHT22;41504;53.162;6.788;2023-10-09T02:02:54;14.10;96.60
55634;DHT22;41504;53.162;6.788;2023-10-09T02:05:20;14.10;96.70
55634;DHT22;41504;53.162;6.788;2023-10-09T02:07:46;14.10;96.80
55634;DHT22;41504;53.162;6.788;2023-10-09T02:10:24;14.10;96.80
55634;DHT22;41504;53.162;6.788;2023-10-09T02:12:50;14.10;96.80
55634;DHT22;41504;53.162;6.788;2023-10-09T02:15:19;14.10;96.90
55634;DHT22;41504;53.162;6.788;2023-10-09T02:18:09;14.00;96.90
55634;DHT22;41504;53.162;6.788;2023-10-09T02:20:45;14.10;97.00
55634;DHT22;41504;53.162;6.788;2023-10-09T02:23:12;14.10;97.00
55634;DHT22;41504;53.162;6.788;2023-10-09T02:25:40;14.10;97.00
55634;DHT22;41504;53.162;6.788;2023-10-09T02:28:09;14.00;97.10
55634;DHT22;41504;53.162;6.788;2023-10-09T02:30:50;14.10;97.20
55634;DHT22;41504;53.162;6.788;2023-10-09T02:33:47;14.00;97.30
55634;DHT22;41504;53.162;6.788;2023-10-09T02:36:33;13.90;97.40
55634;DHT22;41504;53.162;6.788;2023-10-09T02:39:26;14.00;97.50
55634;DHT22;41504;53.162;6.788;2023-10-09T02:41:59;14.00;97.60
55634;DHT22;41504;53.162;6.788;2023-10-09T02:44:50;13.90;97.60
55634;DHT22;41504;53.162;6.788;2023-10-09T02:47:24;13.90;97.70
55634;DHT22;41504;53.162;6.788;2023-10-09T02:50:12;14.00;97.80
55634;DHT22;41504;53.162;6.788;2023-10-09T02:52:56;13.80;97.90
55634;DHT22;41504;53.162;6.788;2023-10-09T02:55:26;13.80;98.00
55634;DHT22;41504;53.162;6.788;2023-10-09T02:57:58;13.90;98.10
55634;DHT22;41504;53.162;6.788;2023-10-09T03:00:43;13.80;98.20
55634;DHT22;41504;53.162;6.788;2023-10-09T03:03:18;13.80;98.30
55634;DHT22;41504;53.162;6.788;2023-10-09T03:05:51;13.80;98.30
55634;DHT22;41504;53.162;6.788;2023-10-09T03:09:01;13.80;98.40
55634;DHT22;41504;53.162;6.788;2023-10-09T03:11:48;13.80;98.50
55634;DHT22;41504;53.162;6.788;2023-10-09T03:14:32;13.80;98.40
55634;DHT22;41504;53.162;6.788;2023-10-09T03:17:13;13.70;98.50
55634;DHT22;41504;53.162;6.788;2023-10-09T03:19:40;13.70;98.60
55634;DHT22;41504;53.162;6.788;2023-10-09T03:22:26;13.80;98.70
55634;DHT22;41504;53.162;6.788;2023-10-09T03:28:11;13.80;98.90
55634;DHT22;41504;53.162;6.788;2023-10-09T03:30:42;13.80;98.90
55634;DHT22;41504;53.162;6.788;2023-10-09T03:33:22;13.80;99.00
55634;DHT22;41504;53.162;6.788;2023-10-09T03:36:02;13.80;99.10
55634;DHT22;41504;53.162;6.788;2023-10-09T03:38:42;13.90;99.20
55634;DHT22;41504;53.162;6.788;2023-10-09T03:41:16;14.10;99.40
55634;DHT22;41504;53.162;6.788;2023-10-09T03:44:06;13.90;99.40
55634;DHT22;41504;53.162;6.788;2023-10-09T03:46:33;13.90;99.50
55634;DHT22;41504;53.162;6.788;2023-10-09T03:49:15;14.00;99.60
55634;DHT22;41504;53.162;6.788;2023-10-09T03:51:49;14.00;99.60
55634;DHT22;41504;53.162;6.788;2023-10-09T03:54:18;14.00;99.60
55634;DHT22;41504;53.162;6.788;2023-10-09T03:56:53;13.80;99.60
55634;DHT22;41504;53.162;6.788;2023-10-09T03:59:28;14.10;99.80
55634;DHT22;41504;53.162;6.788;2023-10-09T04:02:00;14.00;99.90
55634;DHT22;41504;53.162;6.788;2023-10-09T04:04:41;14.10;99.90
55634;DHT22;41504;53.162;6.788;2023-10-09T04:07:24;14.10;99.90
55634;DHT22;41504;53.162;6.788;2023-10-09T04:09:56;14.20;99.90
55634;DHT22;41504;53.162;6.788;2023-10-09T04:12:53;14.20;99.90
55634;DHT22;41504;53.162;6.788;2023-10-09T04:15:48;14.20;99.90
55634;DHT22;41504;53.162;6.788;2023-10-09T04:18:28;14.40;99.90
55634;DHT22;41504;53.162;6.788;2023-10-09T04:21:07;14.30;99.90
55634;DHT22;41504;53.162;6.788;2023-10-09T04:23:50;14.30;99.90
55634;DHT22;41504;53.162;6.788;2023-10-09T04:26:42;14.30;99.90
55634;DHT22;41504;53.162;6.788;2023-10-09T04:29:16;14.40;99.90
55634;DHT22;41504;53.162;6.788;2023-10-09T04:32:07;14.40;99.90
55634;DHT22;41504;53.162;6.788;2023-10-09T04:34:47;14.40;99.90
55634;DHT22;41504;53.162;6.788;2023-10-09T04:37:25;14.40;99.90
55634;DHT22;41504;53.162;6.788;2023-10-09T04:40:08;14.40;99.90
55634;DHT22;41504;53.162;6.788;2023-10-09T04:43:17;14.40;99.90
55634;DHT22;41504;53.162;6.788;2023-10-09T04:46:00;14.40;99.90
55634;DHT22;41504;53.162;6.788;2023-10-09T04:51:46;14.40;99.90
55634;DHT22;41504;53.162;6.788;2023-10-09T04:57:47;14.40;99.90
55634;DHT22;41504;53.162;6.788;2023-10-09T05:00:34;14.40;99.90
55634;DHT22;41504;53.162;6.788;2023-10-09T05:03:41;14.40;99.90
55634;DHT22;41504;53.162;6.788;2023-10-09T05:06:37;14.40;99.90
55634;DHT22;41504;53.162;6.788;2023-10-09T05:09:32;14.50;99.90
55634;DHT22;41504;53.162;6.788;2023-10-09T05:15:26;14.50;99.90
55634;DHT22;41504;53.162;6.788;2023-10-09T05:21:48;14.10;99.90
55634;DHT22;41504;53.162;6.788;2023-10-09T05:24:51;14.50;99.90
55634;DHT22;41504;53.162;6.788;2023-10-09T05:27:38;14.50;99.90
55634;DHT22;41504;53.162;6.788;2023-10-09T05:30:38;14.50;99.90
55634;DHT22;41504;53.162;6.788;2023-10-09T05:33:34;14.60;99.90
55634;DHT22;41504;53.162;6.788;2023-10-09T05:36:21;14.60;99.90
55634;DHT22;41504;53.162;6.788;2023-10-09T05:38:50;14.60;99.90
55634;DHT22;41504;53.162;6.788;2023-10-09T05:41:52;14.70;99.90
55634;DHT22;41504;53.162;6.788;2023-10-09T05:44:40;14.70;99.90
55634;DHT22;41504;53.162;6.788;2023-10-09T05:47:53;14.50;99.90
55634;DHT22;41504;53.162;6.788;2023-10-09T05:50:41;14.70;99.90
55634;DHT22;41504;53.162;6.788;2023-10-09T05:53:48;14.80;99.90
55634;DHT22;41504;53.162;6.788;2023-10-09T05:57:10;14.80;99.90
55634;DHT22;41504;53.162;6.788;2023-10-09T06:00:04;14.90;99.90
55634;DHT22;41504;53.162;6.788;2023-10-09T06:03:10;15.00;99.90
55634;DHT22;41504;53.162;6.788;2023-10-09T06:06:11;15.10;99.90
55634;DHT22;41504;53.162;6.788;2023-10-09T06:08:57;15.10;99.90
55634;DHT22;41504;53.162;6.788;2023-10-09T06:12:01;15.10;99.90
55634;DHT22;41504;53.162;6.788;2023-10-09T06:14:48;15.10;99.90
55634;DHT22;41504;53.162;6.788;2023-10-09T06:17:28;15.20;99.90
55634;DHT22;41504;53.162;6.788;2023-10-09T06:20:30;15.20;99.90
55634;DHT22;41504;53.162;6.788;2023-10-09T06:26:24;15.20;99.90
55634;DHT22;41504;53.162;6.788;2023-10-09T06:29:25;15.10;99.90
55634;DHT22;41504;53.162;6.788;2023-10-09T06:32:21;15.80;99.90
55634;DHT22;41504;53.162;6.788;2023-10-09T06:35:21;15.30;99.90
55634;DHT22;41504;53.162;6.788;2023-10-09T06:38:26;15.30;99.90
55634;DHT22;41504;53.162;6.788;2023-10-09T06:41:25;15.40;99.90
55634;DHT22;41504;53.162;6.788;2023-10-09T06:44:06;15.50;99.90
55634;DHT22;41504;53.162;6.788;2023-10-09T06:47:13;15.40;99.90
55634;DHT22;41504;53.162;6.788;2023-10-09T06:49:42;15.40;99.90
55634;DHT22;41504;53.162;6.788;2023-10-09T06:52:40;15.40;99.90
55634;DHT22;41504;53.162;6.788;2023-10-09T06:55:39;15.40;99.90
55634;DHT22;41504;53.162;6.788;2023-10-09T06:58:18;15.40;99.90
55634;DHT22;41504;53.162;6.788;2023-10-09T07:01:12;15.50;99.90
55634;DHT22;41504;53.162;6.788;2023-10-09T07:04:01;15.40;99.90
55634;DHT22;41504;53.162;6.788;2023-10-09T07:06:55;15.50;99.90
55634;DHT22;41504;53.162;6.788;2023-10-09T07:09:50;15.50;99.90
55634;DHT22;41504;53.162;6.788;2023-10-09T07:12:38;15.50;99.90
55634;DHT22;41504;53.162;6.788;2023-10-09T07:15:25;15.50;99.90
55634;DHT22;41504;53.162;6.788;2023-10-09T07:18:12;15.50;99.90
55634;DHT22;41504;53.162;6.788;2023-10-09T07:20:49;15.50;99.90
55634;DHT22;41504;53.162;6.788;2023-10-09T07:23:44;15.50;99.90
55634;DHT22;41504;53.162;6.788;2023-10-09T07:26:22;15.50;99.90
55634;DHT22;41504;53.162;6.788;2023-10-09T07:29:14;15.50;99.90
55634;DHT22;41504;53.162;6.788;2023-10-09T07:32:22;15.50;99.90
55634;DHT22;41504;53.162;6.788;2023-10-09T07:35:07;15.50;99.90
55634;DHT22;41504;53.162;6.788;2023-10-09T07:37:57;15.50;99.90
55634;DHT22;41504;53.162;6.788;2023-10-09T07:40:36;15.60;99.90
55634;DHT22;41504;53.162;6.788;2023-10-09T07:43:31;15.60;99.90
55634;DHT22;41504;53.162;6.788;2023-10-09T07:46:17;15.70;99.90
55634;DHT22;41504;53.162;6.788;2023-10-09T07:49:13;15.60;99.90
55634;DHT22;41504;53.162;6.788;2023-10-09T07:51:55;15.60;99.90
55634;DHT22;41504;53.162;6.788;2023-10-09T07:54:24;15.80;99.90
55634;DHT22;41504;53.162;6.788;2023-10-09T08:00:09;15.70;99.90
55634;DHT22;41504;53.162;6.788;2023-10-09T08:02:58;15.30;99.90
55634;DHT22;41504;53.162;6.788;2023-10-09T08:05:36;15.70;99.90
55634;DHT22;41504;53.162;6.788;2023-10-09T08:08:25;15.70;99.90
55634;DHT22;41504;53.162;6.788;2023-10-09T08:11:23;15.70;99.90
55634;DHT22;41504;53.162;6.788;2023-10-09T08:14:12;15.70;99.90
55634;DHT22;41504;53.162;6.788;2023-10-09T08:17:02;15.80;99.90
55634;DHT22;41504;53.162;6.788;2023-10-09T08:19:52;15.80;99.90
55634;DHT22;41504;53.162;6.788;2023-10-09T08:22:40;15.80;99.90
55634;DHT22;41504;53.162;6.788;2023-10-09T08:25:27;15.80;99.90
55634;DHT22;41504;53.162;6.788;2023-10-09T08:28:22;15.80;99.90
55634;DHT22;41504;53.162;6.788;2023-10-09T08:31:18;15.80;99.90
55634;DHT22;41504;53.162;6.788;2023-10-09T08:34:02;15.90;99.90
55634;DHT22;41504;53.162;6.788;2023-10-09T08:37:14;15.90;99.90
55634;DHT22;41504;53.162;6.788;2023-10-09T08:39:42;15.90;99.90
55634;DHT22;41504;53.162;6.788;2023-10-09T08:42:24;15.90;99.90
55634;DHT22;41504;53.162;6.788;2023-10-09T08:44:56;15.90;99.90
55634;DHT22;41504;53.162;6.788;2023-10-09T08:47:38;15.90;99.90
55634;DHT22;41504;53.162;6.788;2023-10-09T08:50:20;15.90;99.90
55634;DHT22;41504;53.162;6.788;2023-10-09T08:53:18;16.00;99.90
55634;DHT22;41504;53.162;6.788;2023-10-09T08:55:48;15.90;99.90
55634;DHT22;41504;53.162;6.788;2023-10-09T08:58:27;15.90;99.90
55634;DHT22;41504;53.162;6.788;2023-10-09T09:01:16;15.90;99.90
55634;DHT22;41504;53.162;6.788;2023-10-09T09:03:48;15.90;99.90
55634;DHT22;41504;53.162;6.788;2023-10-09T09:06:19;15.90;99.90
55634;DHT22;41504;53.162;6.788;2023-10-09T09:08:46;15.90;99.90
55634;DHT22;41504;53.162;6.788;2023-10-09T09:11:19;15.90;99.90
55634;DHT22;41504;53.162;6.788;2023-10-09T09:14:06;16.00;99.90
55634;DHT22;41504;53.162;6.788;2023-10-09T09:17:03;16.00;99.90
55634;DHT22;41504;53.162;6.788;2023-10-09T09:19:47;16.00;99.90
55634;DHT22;41504;53.162;6.788;2023-10-09T09:22:57;16.10;99.90
55634;DHT22;41504;53.162;6.788;2023-10-09T09:25:42;16.10;99.90
55634;DHT22;41504;53.162;6.788;2023-10-09T09:28:52;16.10;99.90
55634;DHT22;41504;53.162;6.788;2023-10-09T09:31:54;16.10;99.90
55634;DHT22;41504;53.162;6.788;2023-10-09T09:37:40;16.20;99.90
55634;DHT22;41504;53.162;6.788;2023-10-09T09:40:12;16.20;99.90
55634;DHT22;41504;53.162;6.788;2023-10-09T09:46:00;16.20;99.90
55634;DHT22;41504;53.162;6.788;2023-10-09T09:48:50;16.20;99.90
55634;DHT22;41504;53.162;6.788;2023-10-09T09:51:49;16.20;99.90
55634;DHT22;41504;53.162;6.788;2023-10-09T09:54:33;16.30;99.90
55634;DHT22;41504;53.162;6.788;2023-10-09T09:57:16;16.30;99.90
55634;DHT22;41504;53.162;6.788;2023-10-09T10:00:06;16.30;99.90
55634;DHT22;41504;53.162;6.788;2023-10-09T10:02:59;16.30;99.90
55634;DHT22;41504;53.162;6.788;2023-10-09T10:05:31;16.30;99.90
55634;DHT22;41504;53.162;6.788;2023-10-09T10:08:08;15.90;99.90
55634;DHT22;41504;53.162;6.788;2023-10-09T10:10:40;16.30;99.90
55634;DHT22;41504;53.162;6.788;2023-10-09T10:19:06;16.40;99.90
55634;DHT22;41504;53.162;6.788;2023-10-09T10:22:00;16.50;99.90
55634;DHT22;41504;53.162;6.788;2023-10-09T10:25:16;16.50;99.90
55634;DHT22;41504;53.162;6.788;2023-10-09T10:28:32;16.40;99.90
55634;DHT22;41504;53.162;6.788;2023-10-09T10:34:55;16.50;99.90
55634;DHT22;41504;53.162;6.788;2023-10-09T10:37:43;16.50;99.90
55634;DHT22;41504;53.162;6.788;2023-10-09T10:44:31;16.40;99.90
55634;DHT22;41504;53.162;6.788;2023-10-09T10:47:12;16.40;99.90
55634;DHT22;41504;53.162;6.788;2023-10-09T10:50:06;16.40;99.90
55634;DHT22;41504;53.162;6.788;2023-10-09T10:53:35;16.40;99.90
55634;DHT22;41504;53.162;6.788;2023-10-09T10:56:37;16.30;99.90
55634;DHT22;41504;53.162;6.788;2023-10-09T10:59:17;16.60;99.90
55634;DHT22;41504;53.162;6.788;2023-10-09T11:06:10;16.50;99.90
55634;DHT22;41504;53.162;6.788;2023-10-09T11:08:48;16.50;99.90
55634;DHT22;41504;53.162;6.788;2023-10-09T11:11:52;16.90;99.90
55634;DHT22;41504;53.162;6.788;2023-10-09T11:15:01;16.60;99.90
55634;DHT22;41504;53.162;6.788;2023-10-09T11:17:58;16.60;99.90
55634;DHT22;41504;53.162;6.788;2023-10-09T11:20:55;16.50;99.90
55634;DHT22;41504;53.162;6.788;2023-10-09T11:23:41;16.60;99.90
55634;DHT22;41504;53.162;6.788;2023-10-09T11:26:26;16.50;99.90
55634;DHT22;41504;53.162;6.788;2023-10-09T11:29:21;16.50;99.90
55634;DHT22;41504;53.162;6.788;2023-10-09T11:32:43;16.40;99.90
55634;DHT22;41504;53.162;6.788;2023-10-09T11:35:28;16.40;99.90
55634;DHT22;41504;53.162;6.788;2023-10-09T11:38:17;16.40;99.90
55634;DHT22;41504;53.162;6.788;2023-10-09T11:40:53;16.50;99.90
55634;DHT22;41504;53.162;6.788;2023-10-09T11:43:54;16.50;99.90
55634;DHT22;41504;53.162;6.788;2023-10-09T11:46:23;16.60;99.90
55634;DHT22;41504;53.162;6.788;2023-10-09T11:49:14;16.70;99.90
55634;DHT22;41504;53.162;6.788;2023-10-09T11:51:45;16.70;99.90
55634;DHT22;41504;53.162;6.788;2023-10-09T11:54:31;16.80;99.90
55634;DHT22;41504;53.162;6.788;2023-10-09T11:56:57;16.80;99.90
55634;DHT22;41504;53.162;6.788;2023-10-09T11:59:30;16.90;99.90
55634;DHT22;41504;53.162;6.788;2023-10-09T12:02:08;16.90;99.90
55634;DHT22;41504;53.162;6.788;2023-10-09T12:04:41;16.90;99.90
55634;DHT22;41504;53.162;6.788;2023-10-09T12:07:10;16.90;99.90
55634;DHT22;41504;53.162;6.788;2023-10-09T12:09:39;16.90;99.90
55634;DHT22;41504;53.162;6.788;2023-10-09T12:12:07;16.90;99.90
55634;DHT22;41504;53.162;6.788;2023-10-09T12:14:34;16.90;99.90
55634;DHT22;41504;53.162;6.788;2023-10-09T12:17:01;16.90;99.90
55634;DHT22;41504;53.162;6.788;2023-10-09T12:19:35;16.90;99.90
55634;DHT22;41504;53.162;6.788;2023-10-09T12:22:03;16.90;99.90
55634;DHT22;41504;53.162;6.788;2023-10-09T12:24:33;16.90;99.90
55634;DHT22;41504;53.162;6.788;2023-10-09T12:27:00;16.80;99.90
55634;DHT22;41504;53.162;6.788;2023-10-09T12:29:26;16.80;99.90
55634;DHT22;41504;53.162;6.788;2023-10-09T12:31:58;16.80;99.90
55634;DHT22;41504;53.162;6.788;2023-10-09T12:34:27;16.80;99.90
55634;DHT22;41504;53.162;6.788;2023-10-09T12:36:54;16.70;99.90
55634;DHT22;41504;53.162;6.788;2023-10-09T12:39:21;16.70;99.90
55634;DHT22;41504;53.162;6.788;2023-10-09T12:41:48;16.70;99.90
55634;DHT22;41504;53.162;6.788;2023-10-09T12:44:14;16.70;99.90
55634;DHT22;41504;53.162;6.788;2023-10-09T12:46:43;16.70;99.90
55634;DHT22;41504;53.162;6.788;2023-10-09T12:49:21;16.70;99.90
55634;DHT22;41504;53.162;6.788;2023-10-09T12:51:54;16.80;99.90
55634;DHT22;41504;53.162;6.788;2023-10-09T12:54:25;16.80;99.90
55634;DHT22;41504;53.162;6.788;2023-10-09T12:56:54;16.80;99.90
55634;DHT22;41504;53.162;6.788;2023-10-09T12:59:20;16.80;99.90
55634;DHT22;41504;53.162;6.788;2023-10-09T13:01:47;16.80;99.90
55634;DHT22;41504;53.162;6.788;2023-10-09T13:04:23;16.80;99.90
55634;DHT22;41504;53.162;6.788;2023-10-09T13:06:49;16.80;99.90
55634;DHT22;41504;53.162;6.788;2023-10-09T13:09:20;16.70;99.90
55634;DHT22;41504;53.162;6.788;2023-10-09T13:12:01;16.80;99.90
55634;DHT22;41504;53.162;6.788;2023-10-09T13:14:28;16.80;99.90
55634;DHT22;41504;53.162;6.788;2023-10-09T13:16:54;16.80;99.90
55634;DHT22;41504;53.162;6.788;2023-10-09T13:19:21;16.80;99.90
55634;DHT22;41504;53.162;6.788;2023-10-09T13:21:49;16.80;99.90
55634;DHT22;41504;53.162;6.788;2023-10-09T13:24:15;16.80;99.90
55634;DHT22;41504;53.162;6.788;2023-10-09T13:26:45;16.90;99.90
55634;DHT22;41504;53.162;6.788;2023-10-09T13:29:13;16.90;99.90
55634;DHT22;41504;53.162;6.788;2023-10-09T13:31:39;16.90;99.90
55634;DHT22;41504;53.162;6.788;2023-10-09T13:34:12;16.90;99.90
55634;DHT22;41504;53.162;6.788;2023-10-09T13:36:41;16.90;99.90
55634;DHT22;41504;53.162;6.788;2023-10-09T13:39:15;16.90;99.90
55634;DHT22;41504;53.162;6.788;2023-10-09T13:41:55;16.90;99.90
55634;DHT22;41504;53.162;6.788;2023-10-09T13:44:31;16.90;99.90
55634;DHT22;41504;53.162;6.788;2023-10-09T13:47:03;16.90;99.90
55634;DHT22;41504;53.162;6.788;2023-10-09T13:49:34;16.90;99.90
55634;DHT22;41504;53.162;6.788;2023-10-09T13:52:03;16.80;99.90
55634;DHT22;41504;53.162;6.788;2023-10-09T13:54:29;16.80;99.90
55634;DHT22;41504;53.162;6.788;2023-10-09T13:57:03;16.80;99.90
55634;DHT22;41504;53.162;6.788;2023-10-09T13:59:34;16.80;99.90
55634;DHT22;41504;53.162;6.788;2023-10-09T14:02:09;16.80;99.90
55634;DHT22;41504;53.162;6.788;2023-10-09T14:04:35;16.80;99.90
55634;DHT22;41504;53.162;6.788;2023-10-09T14:07:02;16.80;99.90
55634;DHT22;41504;53.162;6.788;2023-10-09T14:09:31;16.80;99.90
55634;DHT22;41504;53.162;6.788;2023-10-09T14:12:01;16.70;99.90
55634;DHT22;41504;53.162;6.788;2023-10-09T14:17:09;16.80;99.90
55634;DHT22;41504;53.162;6.788;2023-10-09T14:19:42;16.80;99.90
55634;DHT22;41504;53.162;6.788;2023-10-09T14:22:19;16.70;99.90
55634;DHT22;41504;53.162;6.788;2023-10-09T14:24:45;16.80;99.90
55634;DHT22;41504;53.162;6.788;2023-10-09T14:27:12;16.80;99.90
55634;DHT22;41504;53.162;6.788;2023-10-09T14:29:45;16.80;99.90
55634;DHT22;41504;53.162;6.788;2023-10-09T14:32:11;16.70;99.90
55634;DHT22;41504;53.162;6.788;2023-10-09T14:34:41;16.70;99.90
55634;DHT22;41504;53.162;6.788;2023-10-09T14:37:12;16.60;99.90
55634;DHT22;41504;53.162;6.788;2023-10-09T14:39:42;16.60;99.90
55634;DHT22;41504;53.162;6.788;2023-10-09T14:42:08;16.60;99.90
55634;DHT22;41504;53.162;6.788;2023-10-09T14:44:36;16.60;99.90
55634;DHT22;41504;53.162;6.788;2023-10-09T14:47:06;16.50;99.90
55634;DHT22;41504;53.162;6.788;2023-10-09T14:49:36;16.50;99.90
55634;DHT22;41504;53.162;6.788;2023-10-09T14:52:10;16.50;99.90
55634;DHT22;41504;53.162;6.788;2023-10-09T14:54:36;16.60;99.90
55634;DHT22;41504;53.162;6.788;2023-10-09T14:57:04;16.60;99.90
55634;DHT22;41504;53.162;6.788;2023-10-09T14:59:33;16.60;99.90
55634;DHT22;41504;53.162;6.788;2023-10-09T15:01:59;16.60;99.90
55634;DHT22;41504;53.162;6.788;2023-10-09T15:04:25;16.60;99.90
55634;DHT22;41504;53.162;6.788;2023-10-09T15:06:52;16.70;99.90
55634;DHT22;41504;53.162;6.788;2023-10-09T15:09:17;16.60;99.90
55634;DHT22;41504;53.162;6.788;2023-10-09T15:11:54;16.60;99.90
55634;DHT22;41504;53.162;6.788;2023-10-09T15:14:20;16.70;99.90
55634;DHT22;41504;53.162;6.788;2023-10-09T15:16:47;16.60;99.90
55634;DHT22;41504;53.162;6.788;2023-10-09T15:19:13;16.60;99.90
55634;DHT22;41504;53.162;6.788;2023-10-09T15:21:41;16.70;99.90
55634;DHT22;41504;53.162;6.788;2023-10-09T15:24:10;16.60;99.90
55634;DHT22;41504;53.162;6.788;2023-10-09T15:26:47;16.60;99.90
55634;DHT22;41504;53.162;6.788;2023-10-09T15:29:19;16.60;99.90
55634;DHT22;41504;53.162;6.788;2023-10-09T15:31:52;16.60;99.90
55634;DHT22;41504;53.162;6.788;2023-10-09T15:34:17;16.50;99.90
55634;DHT22;41504;53.162;6.788;2023-10-09T15:36:46;16.60;99.90
55634;DHT22;41504;53.162;6.788;2023-10-09T15:39:14;16.50;99.90
55634;DHT22;41504;53.162;6.788;2023-10-09T15:41:45;16.50;99.90
55634;DHT22;41504;53.162;6.788;2023-10-09T15:44:12;16.50;99.90
55634;DHT22;41504;53.162;6.788;2023-10-09T15:46:39;16.50;99.90
55634;DHT22;41504;53.162;6.788;2023-10-09T15:49:06;16.60;99.90
55634;DHT22;41504;53.162;6.788;2023-10-09T15:51:35;16.50;99.90
55634;DHT22;41504;53.162;6.788;2023-10-09T15:54:04;16.50;99.90
55634;DHT22;41504;53.162;6.788;2023-10-09T15:56:29;16.60;99.90
55634;DHT22;41504;53.162;6.788;2023-10-09T15:58:55;16.50;99.90
55634;DHT22;41504;53.162;6.788;2023-10-09T16:01:22;16.50;99.90
55634;DHT22;41504;53.162;6.788;2023-10-09T16:03:48;16.50;99.90
55634;DHT22;41504;53.162;6.788;2023-10-09T16:06:17;16.50;99.90
55634;DHT22;41504;53.162;6.788;2023-10-09T16:08:45;16.50;99.90
55634;DHT22;41504;53.162;6.788;2023-10-09T16:11:18;16.50;99.90
55634;DHT22;41504;53.162;6.788;2023-10-09T16:13:44;16.30;99.90
55634;DHT22;41504;53.162;6.788;2023-10-09T16:16:10;16.40;99.90
55634;DHT22;41504;53.162;6.788;2023-10-09T16:18:39;16.40;99.90
55634;DHT22;41504;53.162;6.788;2023-10-09T16:21:08;16.40;99.90
55634;DHT22;41504;53.162;6.788;2023-10-09T16:23:37;16.30;99.90
55634;DHT22;41504;53.162;6.788;2023-10-09T16:26:03;16.30;99.90
55634;DHT22;41504;53.162;6.788;2023-10-09T16:28:33;16.30;99.90
55634;DHT22;41504;53.162;6.788;2023-10-09T16:31:00;16.30;99.90
55634;DHT22;41504;53.162;6.788;2023-10-09T16:33:26;16.20;99.90
55634;DHT22;41504;53.162;6.788;2023-10-09T16:35:53;16.20;99.90
55634;DHT22;41504;53.162;6.788;2023-10-09T16:38:25;16.20;99.90
55634;DHT22;41504;53.162;6.788;2023-10-09T16:40:55;16.20;99.90
55634;DHT22;41504;53.162;6.788;2023-10-09T16:43:30;16.20;99.80
55634;DHT22;41504;53.162;6.788;2023-10-09T16:45:56;16.20;99.80
55634;DHT22;41504;53.162;6.788;2023-10-09T16:48:25;16.20;99.80
55634;DHT22;41504;53.162;6.788;2023-10-09T16:50:54;16.20;99.70
55634;DHT22;41504;53.162;6.788;2023-10-09T16:53:20;16.20;99.50
55634;DHT22;41504;53.162;6.788;2023-10-09T16:55:46;16.20;99.30
55634;DHT22;41504;53.162;6.788;2023-10-09T16:58:14;16.20;99.10
55634;DHT22;41504;53.162;6.788;2023-10-09T17:00:41;16.20;99.20
55634;DHT22;41504;53.162;6.788;2023-10-09T17:03:06;16.20;99.10
55634;DHT22;41504;53.162;6.788;2023-10-09T17:05:36;16.20;99.30
55634;DHT22;41504;53.162;6.788;2023-10-09T17:08:16;16.20;99.40
55634;DHT22;41504;53.162;6.788;2023-10-09T17:10:45;16.20;99.20
55634;DHT22;41504;53.162;6.788;2023-10-09T17:13:11;16.20;99.30
55634;DHT22;41504;53.162;6.788;2023-10-09T17:15:37;16.20;99.30
55634;DHT22;41504;53.162;6.788;2023-10-09T17:18:03;16.20;99.30
55634;DHT22;41504;53.162;6.788;2023-10-09T17:20:30;16.20;99.40
55634;DHT22;41504;53.162;6.788;2023-10-09T17:22:59;16.10;99.50
55634;DHT22;41504;53.162;6.788;2023-10-09T17:25:28;16.10;99.50
55634;DHT22;41504;53.162;6.788;2023-10-09T17:27:56;16.10;99.60
55634;DHT22;41504;53.162;6.788;2023-10-09T17:30:23;16.10;99.70
55634;DHT22;41504;53.162;6.788;2023-10-09T17:32:53;16.10;99.80